createdAt,value
2022-09-23T00:00:01.582Z,68.159
2022-09-23T00:07:01.675Z,68.31
2022-09-23T00:14:01.860Z,68.31
2022-09-23T00:21:02.187Z,68.389
2022-09-23T00:28:01.875Z,68.389
2022-09-23T00:35:01.970Z,68.659
2022-09-23T00:42:01.496Z,68.659
2022-09-23T00:49:01.591Z,68.746
2022-09-23T00:56:01.855Z,68.746
2022-09-23T01:00:02.414Z,68.841
2022-09-23T01:07:01.798Z,68.841
2022-09-23T01:14:02.117Z,69.03
2022-09-23T01:21:02.350Z,69.03
2022-09-23T01:28:01.762Z,69.276
2022-09-23T01:35:01.690Z,69.276
2022-09-23T01:42:01.615Z,69.62
2022-09-23T01:49:02.017Z,69.892
2022-09-23T01:56:01.773Z,69.892
2022-09-23T02:00:02.358Z,69.892
2022-09-23T02:07:01.747Z,70.213
2022-09-23T02:14:01.902Z,70.213
2022-09-23T02:21:01.599Z,70.348
2022-09-23T02:28:01.354Z,70.68
2022-09-23T02:35:02.447Z,70.68
2022-09-23T02:42:01.370Z,70.752
2022-09-23T02:49:02.089Z,70.752
2022-09-23T02:56:02.092Z,70.817
2022-09-23T03:00:01.731Z,70.817
2022-09-23T03:07:01.689Z,71.077
2022-09-23T03:14:01.996Z,71.077
2022-09-23T03:21:02.320Z,71.274
2022-09-23T03:28:02.030Z,71.274
2022-09-23T03:35:02.568Z,71.515
2022-09-23T03:42:01.653Z,71.515
2022-09-23T03:49:02.113Z,71.681
2022-09-23T03:56:01.584Z,71.681
2022-09-23T04:00:02.219Z,71.934
2022-09-23T04:07:01.535Z,71.934
2022-09-23T04:14:02.257Z,72.096
2022-09-23T04:21:01.928Z,72.096
2022-09-23T04:28:01.900Z,72.123
2022-09-23T04:35:01.745Z,72.123
2022-09-23T04:42:02.186Z,72.071
2022-09-23T04:49:01.798Z,71.997
2022-09-23T04:56:01.566Z,71.997
2022-09-23T05:00:02.138Z,71.997
2022-09-23T05:07:03.517Z,72.114
2022-09-23T05:14:01.779Z,72.114
2022-09-23T05:21:02.055Z,72.129
2022-09-23T05:28:01.687Z,72.063
2022-09-23T05:35:02.427Z,72.063
2022-09-23T05:42:02.311Z,72.168
2022-09-23T05:49:03.328Z,72.168
2022-09-23T05:56:02.156Z,72.28
2022-09-23T06:00:01.771Z,72.28
2022-09-23T06:07:03.726Z,72.538
2022-09-23T06:14:01.898Z,72.538
2022-09-23T06:21:02.228Z,72.928
2022-09-23T06:28:02.354Z,72.928
2022-09-23T06:35:01.547Z,73.229
2022-09-23T06:42:02.141Z,73.229
2022-09-23T06:49:01.653Z,73.032
2022-09-23T06:56:01.965Z,73.032
2022-09-23T07:00:01.691Z,72.876
2022-09-23T07:07:02.250Z,72.876
2022-09-23T07:14:01.953Z,72.09
2022-09-23T07:21:01.935Z,72.09
2022-09-23T07:28:01.398Z,70.598
2022-09-23T07:35:02.252Z,70.598
2022-09-23T07:42:02.277Z,70.116
2022-09-23T07:49:02.236Z,69.9
2022-09-23T07:56:01.691Z,69.9
2022-09-23T08:00:02.305Z,69.9
2022-09-23T08:07:02.091Z,69.972
2022-09-23T08:14:02.350Z,69.972
2022-09-23T08:21:01.926Z,70.072
2022-09-23T08:28:01.474Z,69.999
2022-09-23T08:35:02.107Z,69.999
2022-09-23T08:42:02.076Z,70.293
2022-09-23T08:49:01.890Z,70.293
2022-09-23T08:56:01.984Z,70.062
2022-09-23T09:00:01.623Z,70.062
2022-09-23T09:07:18.298Z,70.039
2022-09-23T09:14:01.597Z,70.039
2022-09-23T09:21:01.751Z,69.752
2022-09-23T09:28:01.458Z,69.752
2022-09-23T09:35:01.713Z,69.68
2022-09-23T09:42:01.814Z,69.68
2022-09-23T09:49:01.986Z,69.436
2022-09-23T09:56:04.892Z,69.436
2022-09-23T10:00:02.234Z,68.805
2022-09-23T10:07:01.699Z,68.805
2022-09-23T10:14:01.306Z,68.814
2022-09-23T10:21:01.983Z,68.814
2022-09-23T10:28:05.979Z,68.253
2022-09-23T10:35:02.015Z,68.253
2022-09-23T10:42:01.826Z,68.06
2022-09-23T10:49:02.129Z,68.075
2022-09-23T10:56:02.089Z,68.075
2022-09-23T11:00:01.709Z,68.075
2022-09-23T11:07:01.309Z,67.871
2022-09-23T11:14:01.848Z,67.871
2022-09-23T11:21:01.814Z,67.663
2022-09-23T11:28:01.521Z,67.362
2022-09-23T11:35:01.916Z,67.362
2022-09-23T11:42:01.539Z,67.244
2022-09-23T11:49:01.641Z,67.244
2022-09-23T11:56:02.157Z,66.343
2022-09-23T12:00:03.355Z,66.343
2022-09-23T12:07:01.765Z,66.235
2022-09-23T12:14:01.670Z,66.235
2022-09-23T12:21:02.266Z,65.82
2022-09-23T12:28:01.679Z,65.82
2022-09-23T12:35:02.144Z,65.52
2022-09-23T12:42:01.400Z,65.52
2022-09-23T12:49:01.678Z,64.759
2022-09-23T12:56:01.380Z,64.759
2022-09-23T13:00:01.922Z,64.767
2022-09-23T13:07:02.024Z,64.767
2022-09-23T13:14:01.470Z,64.8
2022-09-23T13:21:01.467Z,64.8
2022-09-23T13:28:02.154Z,64.831
2022-09-23T13:35:01.735Z,64.831
2022-09-23T13:42:01.747Z,64.769
2022-09-23T13:49:02.045Z,64.799
2022-09-23T13:56:02.198Z,64.799
2022-09-23T14:00:01.750Z,64.799
2022-09-23T14:07:01.674Z,64.898
2022-09-23T14:14:01.603Z,64.898
2022-09-23T14:21:02.171Z,64.091
2022-09-23T14:28:01.708Z,64.095
2022-09-23T14:35:02.248Z,64.095
2022-09-23T14:42:01.704Z,62.94
2022-09-23T14:49:01.864Z,62.94
2022-09-23T14:56:01.794Z,63.524
2022-09-23T15:00:02.399Z,63.524
2022-09-23T15:07:02.083Z,62.302
2022-09-23T15:14:14.174Z,62.302
2022-09-23T15:21:01.614Z,61.278
2022-09-23T15:28:01.465Z,61.278
2022-09-23T15:35:02.498Z,61.95
2022-09-23T15:42:02.318Z,61.95
2022-09-23T15:49:01.908Z,62.254
2022-09-23T15:56:02.342Z,62.254
2022-09-23T16:00:01.895Z,62.566
2022-09-23T16:07:01.921Z,62.566
2022-09-23T16:14:01.794Z,61.795
2022-09-23T16:21:01.945Z,61.795
2022-09-23T16:28:01.676Z,57.769
2022-09-23T16:35:02.403Z,53.607
2022-09-23T16:42:01.343Z,53.607
2022-09-23T16:49:01.840Z,51.826
2022-09-23T16:56:01.488Z,51.148
2022-09-23T17:00:02.130Z,51.148
2022-09-23T17:07:02.160Z,50.606
2022-09-23T17:14:01.395Z,50.021
2022-09-23T17:21:01.478Z,50.376
2022-09-23T17:28:01.336Z,50.376
2022-09-23T17:35:02.146Z,50.894
2022-09-23T17:42:02.089Z,51.57
2022-09-23T17:49:01.481Z,51.57
2022-09-23T17:56:02.227Z,51.981
2022-09-23T18:00:01.728Z,52.591
2022-09-23T18:07:02.175Z,52.591
2022-09-23T18:14:02.219Z,52.803
2022-09-23T18:21:02.200Z,55.384
2022-09-23T18:28:01.726Z,55.384
2022-09-23T18:35:02.133Z,57.787
2022-09-23T18:42:02.312Z,59.405
2022-09-23T18:49:01.466Z,60.8
2022-09-23T18:56:02.277Z,60.8
2022-09-23T19:00:01.864Z,61.779
2022-09-23T19:07:01.492Z,62.745
2022-09-23T19:14:02.230Z,62.745
2022-09-23T19:21:06.233Z,63.391
2022-09-23T19:28:02.031Z,63.971
2022-09-23T19:35:01.571Z,63.971
2022-09-23T19:42:02.257Z,64.787
2022-09-23T19:49:02.188Z,65.482
2022-09-23T19:56:02.292Z,65.482
2022-09-23T20:00:01.941Z,65.482
2022-09-23T20:07:01.816Z,66.506
2022-09-23T20:14:02.134Z,66.506
2022-09-23T20:21:01.992Z,66.893
2022-09-23T20:28:02.060Z,67.195
2022-09-23T20:35:02.464Z,67.566
2022-09-23T20:42:01.833Z,67.566
2022-09-23T20:49:02.174Z,67.796
2022-09-23T20:56:02.322Z,68.373
2022-09-23T21:00:01.964Z,68.373
2022-09-23T21:07:01.384Z,68.373
2022-09-23T21:14:01.988Z,69.252
2022-09-23T21:21:01.984Z,69.252
2022-09-23T21:28:01.658Z,69.534
2022-09-23T21:35:02.241Z,69.916
2022-09-23T21:42:01.998Z,70.348
2022-09-23T21:49:01.377Z,70.348
2022-09-23T21:56:01.370Z,70.803
2022-09-23T22:00:02.041Z,70.803
2022-09-23T22:07:01.510Z,71.041
2022-09-23T22:14:01.698Z,71.467
2022-09-23T22:21:02.240Z,71.669
2022-09-23T22:28:01.873Z,71.669
2022-09-23T22:35:02.286Z,72.018
2022-09-23T22:42:01.785Z,72.365
2022-09-23T22:49:02.018Z,72.365
2022-09-23T22:56:02.014Z,72.529
2022-09-23T23:00:01.579Z,72.687
2022-09-23T23:07:02.089Z,72.687
2022-09-23T23:14:01.705Z,72.97
2022-09-23T23:21:02.103Z,73.014
2022-09-23T23:28:01.470Z,72.962
2022-09-23T23:35:02.313Z,72.962
2022-09-23T23:42:01.979Z,73.167
2022-09-23T23:49:02.288Z,73.275
2022-09-23T23:56:02.045Z,73.275
